Thursday, November 23, 2017, 1:16 PM EST
Back to Local

KDOV, Dover Air Force Base

Location: Dover, DE, United States Lat: 39.133
Local Time: 1:16 PM EST (18:16 GMT) Lon: -75.467
Time Zone: US/Eastern Elev: 29 ft

Show me the last for .
Show Decoded

2017-11-23 12:56 METAR KDOV 231756Z AUTO 31006KT 10SM CLR 05/M01 A3009 RMK AO2 SLP193 T00511012
                 10051 21012 57024 $ =
2017-11-23 11:56 METAR KDOV 231656Z AUTO 31008KT 10SM CLR 04/M02 A3011 RMK AO2 SLP200 T00401024 $
                 =
2017-11-23 10:56 METAR KDOV 231556Z AUTO 32007KT 10SM CLR 03/M03 A3015 RMK AO2 SLP213 T00281031 $
                 =
2017-11-23 09:56 METAR KDOV 231456Z AUTO 30011KT 10SM CLR 02/M03 A3016 RMK AO2 SLP217 T00211034
                 50001 $ =
2017-11-23 08:56 METAR KDOV 231356Z AUTO 31009KT 10SM CLR 02/M03 A3018 RMK AO2 SLP223 T00191032 $
                 =
2017-11-23 07:56 METAR KDOV 231256Z AUTO 31006KT 10SM CLR 00/M03 A3017 RMK AO2 SLP220 T00021028 $
                 =
2017-11-23 06:56 METAR KDOV 231156Z AUTO 28005KT 10SM CLR M01/M04 A3016 RMK AO2 SLP217 T10121036
                 10019 21014 53005 $ =
2017-11-23 05:56 METAR KDOV 231056Z AUTO 30003KT 10SM CLR M01/M03 A3015 RMK AO2 SLP213 T10081035
                 $ =
2017-11-23 04:56 METAR KDOV 230956Z AUTO 31006KT 10SM CLR 00/M03 A3015 RMK AO2 SLP213 T10041034 $
                 =
2017-11-23 03:56 METAR KDOV 230856Z AUTO 30005KT 10SM CLR 00/M03 A3015 RMK AO2 SLP213 T10021032
                 51007 $ =
2017-11-23 02:56 METAR KDOV 230756Z AUTO 29005KT 10SM CLR 01/M03 A3015 RMK AO2 SLP213 T00051032 $
                 =
2017-11-23 01:56 METAR KDOV 230656Z AUTO 28005KT 10SM CLR 01/M03 A3015 RMK AO2 SLP213 T00131030 $
                 =
2017-11-23 00:56 METAR KDOV 230556Z AUTO 31009KT 10SM CLR 02/M02 A3012 RMK AO2 SLP203 T00201023
                 10077 20020 58002 $ =
2017-11-22 23:56 METAR KDOV 230456Z AUTO 31012KT 10SM CLR 03/M02 A3013 RMK AO2 SLP206 T00271024
                 401470027 $ =
2017-11-22 22:56 METAR KDOV 230356Z AUTO 31011G21KT 10SM CLR 03/M02 A3013 RMK AO2 SLP206
                 T00341017 $ =
2017-11-22 21:56 METAR KDOV 230256Z AUTO 31014KT 10SM CLR 04/M01 A3013 RMK AO2 SLP206 T00411007
                 52016 $ =
2017-11-22 20:56 METAR KDOV 230156Z AUTO 31011KT 10SM CLR 05/00 A3011 RMK AO2 SLP200 T00471001 $
                 =
2017-11-22 19:56 METAR KDOV 230056Z AUTO 33011KT 10SM BKN046 06/01 A3009 RMK AO2 SLP193 T00610010
                 $ =
2017-11-22 18:56 METAR KDOV 222356Z AUTO 32009KT 10SM OVC050 08/03 A3008 RMK AO2 SLP189 T00770026
                 10147 20077 52033 $ =
2017-11-22 17:56 METAR KDOV 222256Z 33011KT 10SM OVC050 08/M03 A3006 RMK AO2A SLP183 T00811030 $
                 =
2017-11-22 16:56 METAR KDOV 222156Z 32017G22KT 10SM OVC050 09/00 A3003 RMK AO2A PK WND 32027/00
                 SLP172 T00880004 $ =
2017-11-22 15:56 METAR KDOV 222056Z 31018G24KT 10SM FEW055 11/00 A2998 RMK AO2A SLP155 T01110000
                 52020 $ =
2017-11-22 14:56 METAR KDOV 221956Z 30019G22KT 10SM CLR 12/00 A2995 RMK AO2A PK WND 30027/16
                 SLP145 T01220000 $ =
2017-11-22 13:56 METAR KDOV 221856Z 32017G25KT 10SM SCT050 14/01 A2994 RMK AO2A SLP142 T013800013
                 $ =

Support USWX by starting your Amazon purchase here.